Private Wetterstation Sandau
Wetterdaten: Freitag, 09.11.2012
Datum Zeit Temp. A. Feuchte A. Luftdruck Regen Wind Richtung Richtung Taupunkt Windchill
09.11.2012 00:01 8,8 C 87 % 1014,2 hPa 0,0 l/m 13,3 km/h (3 Bft) W 270 6,8 C 6,7 C
09.11.2012 00:06 8,8 C 87 % 1014,4 hPa 0,0 l/m 6,8 km/h (2 Bft) W 270 6,8 C 7,9 C
09.11.2012 00:11 8,8 C 87 % 1014,4 hPa 0,0 l/m 12,2 km/h (2 Bft) W 270 6,8 C 6,8 C
09.11.2012 00:16 8,8 C 87 % 1014,3 hPa 0,0 l/m 19,1 km/h (3 Bft) W 270 6,8 C 6,0 C
09.11.2012 00:21 8,8 C 87 % 1014,4 hPa 0,0 l/m 14,4 km/h (3 Bft) W 270 6,8 C 6,5 C
09.11.2012 00:26 8,8 C 86 % 1014,5 hPa 0,0 l/m 15,1 km/h (3 Bft) W-SW 247 6,6 C 6,4 C
09.11.2012 00:31 8,8 C 86 % 1014,4 hPa 0,0 l/m 12,2 km/h (2 Bft) W-SW 247 6,6 C 6,8 C
09.11.2012 00:36 8,9 C 86 % 1014,5 hPa 0,0 l/m 19,1 km/h (3 Bft) W 270 6,7 C 6,1 C
09.11.2012 00:41 8,9 C 86 % 1014,5 hPa 0,0 l/m 7,6 km/h (2 Bft) W-SW 247 6,7 C 7,8 C
09.11.2012 00:46 8,9 C 86 % 1014,6 hPa 0,0 l/m 3,6 km/h (1 Bft) W-NW 292 6,7 C 8,9 C
09.11.2012 00:51 8,9 C 86 % 1014,6 hPa 0,0 l/m 5,0 km/h (1 Bft) W 270 6,7 C 8,5 C
09.11.2012 00:56 8,9 C 86 % 1014,6 hPa 0,0 l/m 11,9 km/h (2 Bft) W 270 6,7 C 7,0 C
09.11.2012 01:01 8,9 C 86 % 1014,6 hPa 0,0 l/m 5,0 km/h (1 Bft) W-NW 292 6,7 C 8,5 C
09.11.2012 01:06 8,9 C 86 % 1014,7 hPa 0,0 l/m 11,9 km/h (2 Bft) W 270 6,7 C 7,0 C
09.11.2012 01:11 8,9 C 86 % 1014,8 hPa 0,0 l/m 3,6 km/h (1 Bft) W 270 6,7 C 8,9 C
09.11.2012 01:16 8,8 C 86 % 1014,8 hPa 0,0 l/m 2,5 km/h (1 Bft) W 270 6,6 C 8,8 C
09.11.2012 01:21 8,8 C 86 % 1014,6 hPa 0,0 l/m 9,4 km/h (2 Bft) W-SW 247 6,6 C 7,3 C
09.11.2012 01:26 8,7 C 86 % 1014,6 hPa 0,0 l/m 4,7 km/h (1 Bft) W 270 6,5 C 8,4 C
09.11.2012 01:31 8,7 C 86 % 1014,7 hPa 0,0 l/m 13,0 km/h (3 Bft) W 270 6,5 C 6,6 C
09.11.2012 01:36 8,6 C 86 % 1014,7 hPa 0,0 l/m 9,7 km/h (2 Bft) W-SW 247 6,4 C 7,0 C
09.11.2012 01:41 8,6 C 86 % 1014,8 hPa 0,0 l/m 9,0 km/h (2 Bft) W-SW 247 6,4 C 7,2 C
09.11.2012 01:46 8,6 C 86 % 1014,8 hPa 0,0 l/m 15,5 km/h (3 Bft) W-SW 247 6,4 C 6,1 C
09.11.2012 01:51 8,5 C 86 % 1014,8 hPa 0,0 l/m 19,8 km/h (3 Bft) W 270 6,3 C 5,5 C
09.11.2012 01:56 8,5 C 86 % 1014,9 hPa 0,0 l/m 11,9 km/h (2 Bft) W-SW 247 6,3 C 6,5 C
09.11.2012 02:01 8,5 C 87 % 1015,0 hPa 0,0 l/m 13,7 km/h (3 Bft) W 270 6,5 C 6,2 C
09.11.2012 02:06 8,4 C 87 % 1015,1 hPa 0,0 l/m 7,9 km/h (2 Bft) W 270 6,4 C 7,2 C
09.11.2012 02:11 8,4 C 87 % 1015,0 hPa 0,0 l/m 19,4 km/h (3 Bft) W 270 6,4 C 5,4 C
09.11.2012 02:16 8,4 C 88 % 1014,9 hPa 0,0 l/m 8,3 km/h (2 Bft) W 270 6,5 C 7,1 C
09.11.2012 02:21 8,4 C 88 % 1014,9 hPa 0,0 l/m 7,2 km/h (2 Bft) W-SW 247 6,5 C 7,3 C
09.11.2012 02:26 8,4 C 88 % 1015,0 hPa 0,0 l/m 4,7 km/h (1 Bft) S-SW 202 6,5 C 8,0 C
09.11.2012 02:31 8,3 C 88 % 1015,0 hPa 0,0 l/m 17,3 km/h (3 Bft) W-SW 247 6,4 C 5,5 C
09.11.2012 02:36 8,3 C 88 % 1015,1 hPa 0,0 l/m 21,6 km/h (4 Bft) W 270 6,4 C 5,1 C
09.11.2012 02:41 8,3 C 88 % 1015,1 hPa 0,0 l/m 22,0 km/h (4 Bft) W 270 6,4 C 5,0 C
09.11.2012 02:46 8,3 C 89 % 1015,2 hPa 0,0 l/m 14,4 km/h (3 Bft) W-SW 247 6,6 C 5,9 C
09.11.2012 02:51 8,3 C 89 % 1015,1 hPa 0,0 l/m 11,2 km/h (2 Bft) W-SW 247 6,6 C 6,4 C
09.11.2012 02:56 8,2 C 89 % 1015,1 hPa 0,0 l/m 14,8 km/h (3 Bft) W-SW 247 6,5 C 5,7 C
09.11.2012 03:01 8,3 C 89 % 1015,1 hPa 0,0 l/m 8,6 km/h (2 Bft) W-SW 247 6,6 C 6,9 C
09.11.2012 03:06 8,3 C 89 % 1015,2 hPa 0,0 l/m 6,1 km/h (2 Bft) W-SW 247 6,6 C 7,5 C
09.11.2012 03:11 8,3 C 89 % 1015,2 hPa 0,0 l/m 8,3 km/h (2 Bft) W 270 6,6 C 6,9 C
09.11.2012 03:16 8,3 C 89 % 1015,3 hPa 0,0 l/m 6,5 km/h (2 Bft) W-NW 292 6,6 C 7,4 C
09.11.2012 03:21 8,4 C 89 % 1015,4 hPa 0,0 l/m 16,9 km/h (3 Bft) W 270 6,7 C 5,7 C
09.11.2012 03:26 8,4 C 89 % 1015,1 hPa 0,0 l/m 7,6 km/h (2 Bft) W-SW 247 6,7 C 7,2 C
09.11.2012 03:31 8,4 C 89 % 1015,2 hPa 0,0 l/m 18,0 km/h (3 Bft) W-SW 247 6,7 C 5,6 C
09.11.2012 03:36 8,4 C 89 % 1015,3 hPa 0,0 l/m 10,1 km/h (2 Bft) SW 225 6,7 C 6,7 C
09.11.2012 03:41 8,4 C 89 % 1015,4 hPa 0,0 l/m 12,6 km/h (3 Bft) SW 225 6,7 C 6,3 C
09.11.2012 03:46 8,4 C 89 % 1015,4 hPa 0,0 l/m 12,2 km/h (2 Bft) W-SW 247 6,7 C 6,3 C
09.11.2012 03:51 8,5 C 89 % 1015,4 hPa 0,0 l/m 3,2 km/h (1 Bft) SW 225 6,8 C 8,5 C
09.11.2012 03:56 8,5 C 89 % 1015,6 hPa 0,0 l/m 5,4 km/h (1 Bft) W 270 6,8 C 7,9 C
09.11.2012 04:01 8,5 C 89 % 1015,4 hPa 0,0 l/m 13,0 km/h (3 Bft) W-SW 247 6,8 C 6,3 C
09.11.2012 04:06 8,5 C 89 % 1015,5 hPa 0,0 l/m 16,6 km/h (3 Bft) W 270 6,8 C 5,9 C
09.11.2012 04:11 8,5 C 89 % 1015,5 hPa 0,0 l/m 14,8 km/h (3 Bft) W 270 6,8 C 6,1 C
09.11.2012 04:16 8,5 C 89 % 1015,5 hPa 0,0 l/m 10,1 km/h (2 Bft) SW 225 6,8 C 6,8 C
09.11.2012 04:21 8,5 C 89 % 1015,2 hPa 0,0 l/m 18,7 km/h (3 Bft) W-SW 247 6,8 C 5,6 C
09.11.2012 04:26 8,5 C 89 % 1015,4 hPa 0,0 l/m 10,1 km/h (2 Bft) W-SW 247 6,8 C 6,8 C
09.11.2012 04:31 8,4 C 89 % 1015,3 hPa 0,0 l/m 7,2 km/h (2 Bft) W-SW 247 6,7 C 7,3 C
09.11.2012 04:36 8,4 C 89 % 1015,4 hPa 0,0 l/m 10,8 km/h (2 Bft) W 270 6,7 C 6,6 C
09.11.2012 04:41 8,4 C 89 % 1015,4 hPa 0,0 l/m 7,6 km/h (2 Bft) W 270 6,7 C 7,2 C
09.11.2012 04:46 8,4 C 89 % 1015,5 hPa 0,0 l/m 9,4 km/h (2 Bft) S 180 6,7 C 6,8 C
09.11.2012 04:51 8,4 C 89 % 1015,4 hPa 0,0 l/m 18,7 km/h (3 Bft) W-NW 292 6,7 C 5,5 C
09.11.2012 04:56 8,4 C 89 % 1015,3 hPa 0,0 l/m 3,6 km/h (1 Bft) W-SW 247 6,7 C 8,4 C
09.11.2012 05:01 8,4 C 89 % 1015,5 hPa 0,0 l/m 11,5 km/h (2 Bft) SW 225 6,7 C 6,5 C
09.11.2012 05:06 8,4 C 89 % 1015,5 hPa 0,0 l/m 15,5 km/h (3 Bft) W 270 6,7 C 5,9 C
09.11.2012 05:11 8,4 C 89 % 1015,4 hPa 0,0 l/m 6,5 km/h (2 Bft) W-SW 247 6,7 C 7,5 C
09.11.2012 05:16 8,4 C 89 % 1015,6 hPa 0,0 l/m 23,0 km/h (4 Bft) W 270 6,7 C 5,1 C
09.11.2012 05:21 8,4 C 89 % 1015,5 hPa 0,0 l/m 6,1 km/h (2 Bft) W-SW 247 6,7 C 7,6 C
09.11.2012 05:26 8,4 C 89 % 1015,5 hPa 0,0 l/m 3,6 km/h (1 Bft) W-NW 292 6,7 C 8,4 C
09.11.2012 05:31 8,4 C 89 % 1015,7 hPa 0,0 l/m 9,0 km/h (2 Bft) W-SW 247 6,7 C 6,9 C
09.11.2012 05:36 8,4 C 89 % 1015,6 hPa 0,0 l/m 4,0 km/h (1 Bft) W-SW 247 6,7 C 8,4 C
09.11.2012 05:41 8,4 C 89 % 1015,7 hPa 0,0 l/m 11,2 km/h (2 Bft) W 270 6,7 C 6,5 C
09.11.2012 05:46 8,4 C 89 % 1015,7 hPa 0,0 l/m 4,3 km/h (1 Bft) W 270 6,7 C 8,4 C
09.11.2012 05:51 8,4 C 89 % 1015,7 hPa 0,0 l/m 8,3 km/h (2 Bft) W-SW 247 6,7 C 7,1 C
09.11.2012 05:56 8,4 C 89 % 1015,7 hPa 0,0 l/m 2,2 km/h (1 Bft) W 270 6,7 C 8,4 C
09.11.2012 06:01 8,4 C 89 % 1015,7 hPa 0,0 l/m 13,0 km/h (3 Bft) W 270 6,7 C 6,2 C
09.11.2012 06:06 8,4 C 89 % 1015,9 hPa 0,0 l/m 13,3 km/h (3 Bft) W-SW 247 6,7 C 6,2 C
09.11.2012 06:11 8,4 C 89 % 1015,8 hPa 0,0 l/m 4,7 km/h (1 Bft) W 270 6,7 C 8,0 C
09.11.2012 06:16 8,4 C 89 % 1015,8 hPa 0,0 l/m 8,6 km/h (2 Bft) W 270 6,7 C 7,0 C
09.11.2012 06:21 8,4 C 89 % 1015,9 hPa 0,0 l/m 12,6 km/h (3 Bft) W-SW 247 6,7 C 6,3 C
09.11.2012 06:26 8,4 C 89 % 1016,1 hPa 0,0 l/m 0,0 km/h (0 Bft) W 270 6,7 C 8,4 C
09.11.2012 06:31 8,4 C 89 % 1016,1 hPa 0,0 l/m 4,3 km/h (1 Bft) W-SW 247 6,7 C 8,4 C
09.11.2012 06:36 8,3 C 89 % 1016,1 hPa 0,0 l/m 4,0 km/h (1 Bft) W 270 6,6 C 8,3 C
09.11.2012 06:41 8,3 C 89 % 1016,1 hPa 0,0 l/m 7,6 km/h (2 Bft) W-SW 247 6,6 C 7,1 C
09.11.2012 06:46 8,3 C 89 % 1016,0 hPa 0,0 l/m 14,8 km/h (3 Bft) W 270 6,6 C 5,8 C
09.11.2012 06:51 8,3 C 89 % 1016,0 hPa 0,0 l/m 16,6 km/h (3 Bft) W 270 6,6 C 5,6 C
09.11.2012 06:56 8,3 C 89 % 1016,1 hPa 0,0 l/m 9,4 km/h (2 Bft) W-SW 247 6,6 C 6,7 C
09.11.2012 07:01 8,3 C 89 % 1016,3 hPa 0,0 l/m 13,7 km/h (3 Bft) W 270 6,6 C 6,0 C
09.11.2012 07:06 8,3 C 89 % 1016,2 hPa 0,0 l/m 8,6 km/h (2 Bft) W-SW 247 6,6 C 6,9 C
09.11.2012 07:11 8,3 C 89 % 1016,2 hPa 0,0 l/m 8,3 km/h (2 Bft) W 270 6,6 C 6,9 C
09.11.2012 07:16 8,3 C 89 % 1016,4 hPa 0,0 l/m 5,8 km/h (2 Bft) W-SW 247 6,6 C 7,6 C
09.11.2012 07:21 8,3 C 89 % 1016,2 hPa 0,0 l/m 7,2 km/h (2 Bft) W-SW 247 6,6 C 7,2 C
09.11.2012 07:26 8,3 C 89 % 1016,3 hPa 0,0 l/m 6,1 km/h (2 Bft) W-SW 247 6,6 C 7,5 C
09.11.2012 07:31 8,3 C 89 % 1016,4 hPa 0,0 l/m 8,3 km/h (2 Bft) W 270 6,6 C 6,9 C
09.11.2012 07:36 8,3 C 89 % 1016,5 hPa 0,0 l/m 7,6 km/h (2 Bft) W-SW 247 6,6 C 7,1 C
09.11.2012 07:41 8,3 C 89 % 1016,5 hPa 0,0 l/m 20,5 km/h (4 Bft) W-SW 247 6,6 C 5,2 C
09.11.2012 07:46 8,3 C 89 % 1016,7 hPa 0,0 l/m 18,4 km/h (3 Bft) W-SW 247 6,6 C 5,4 C
09.11.2012 07:51 8,3 C 89 % 1016,5 hPa 0,0 l/m 7,2 km/h (2 Bft) W-SW 247 6,6 C 7,2 C
09.11.2012 07:56 8,3 C 89 % 1016,7 hPa 0,0 l/m 13,7 km/h (3 Bft) W-SW 247 6,6 C 6,0 C
09.11.2012 08:01 8,3 C 89 % 1016,8 hPa 0,0 l/m 20,2 km/h (4 Bft) W-SW 247 6,6 C 5,2 C
09.11.2012 08:06 8,3 C 89 % 1016,8 hPa 0,0 l/m 14,8 km/h (3 Bft) W 270 6,6 C 5,8 C
09.11.2012 08:11 8,4 C 89 % 1016,9 hPa 0,0 l/m 21,6 km/h (4 Bft) W-SW 247 6,7 C 5,2 C
09.11.2012 08:16 8,4 C 89 % 1017,0 hPa 0,0 l/m 10,8 km/h (2 Bft) W-SW 247 6,7 C 6,6 C
09.11.2012 08:21 8,4 C 89 % 1017,2 hPa 0,0 l/m 7,6 km/h (2 Bft) S 180 6,7 C 7,2 C
09.11.2012 08:26 8,4 C 89 % 1016,8 hPa 0,0 l/m 23,0 km/h (4 Bft) W 270 6,7 C 5,1 C
09.11.2012 08:31 8,4 C 89 % 1016,9 hPa 0,0 l/m 9,0 km/h (2 Bft) W-SW 247 6,7 C 6,9 C
09.11.2012 08:36 8,5 C 89 % 1017,1 hPa 0,0 l/m 14,0 km/h (3 Bft) W-SW 247 6,8 C 6,2 C
09.11.2012 08:41 8,5 C 89 % 1017,2 hPa 0,0 l/m 9,0 km/h (2 Bft) W-NW 292 6,8 C 7,0 C
09.11.2012 08:46 8,6 C 89 % 1017,2 hPa 0,0 l/m 14,8 km/h (3 Bft) W-SW 247 6,9 C 6,2 C
09.11.2012 08:51 8,6 C 88 % 1017,1 hPa 0,0 l/m 13,7 km/h (3 Bft) W-SW 247 6,7 C 6,4 C
09.11.2012 08:56 8,7 C 88 % 1017,3 hPa 0,0 l/m 6,8 km/h (2 Bft) SW 225 6,8 C 7,8 C
09.11.2012 09:01 8,8 C 88 % 1017,4 hPa 0,0 l/m 9,0 km/h (2 Bft) SW 225 6,9 C 7,4 C
09.11.2012 09:06 8,8 C 88 % 1017,2 hPa 0,0 l/m 14,0 km/h (3 Bft) W-SW 247 6,9 C 6,6 C
09.11.2012 09:11 8,8 C 88 % 1017,4 hPa 0,0 l/m 9,4 km/h (2 Bft) W 270 6,9 C 7,3 C
09.11.2012 09:16 8,8 C 88 % 1017,5 hPa 0,0 l/m 10,1 km/h (2 Bft) SW 225 6,9 C 7,2 C
09.11.2012 09:21 8,8 C 88 % 1017,5 hPa 0,0 l/m 6,8 km/h (2 Bft) W-SW 247 6,9 C 7,9 C
09.11.2012 09:26 8,9 C 88 % 1017,7 hPa 0,0 l/m 13,3 km/h (3 Bft) W 270 7,0 C 6,8 C
09.11.2012 09:31 8,9 C 88 % 1017,5 hPa 0,0 l/m 6,1 km/h (2 Bft) W-SW 247 7,0 C 8,2 C
09.11.2012 09:36 9,1 C 88 % 1017,6 hPa 0,0 l/m 12,2 km/h (2 Bft) W 270 7,2 C 7,2 C
09.11.2012 09:41 9,3 C 87 % 1017,7 hPa 0,0 l/m 13,7 km/h (3 Bft) W-SW 247 7,2 C 7,2 C
09.11.2012 09:46 9,5 C 87 % 1017,8 hPa 0,0 l/m 15,1 km/h (3 Bft) W 270 7,4 C 7,3 C
09.11.2012 09:51 9,8 C 87 % 1017,8 hPa 0,0 l/m 14,8 km/h (3 Bft) W-NW 292 7,7 C 7,7 C
09.11.2012 09:56 9,8 C 86 % 1017,8 hPa 0,0 l/m 16,2 km/h (3 Bft) W-SW 247 7,6 C 7,5 C
09.11.2012 10:01 9,9 C 85 % 1017,7 hPa 0,0 l/m 15,8 km/h (3 Bft) W-SW 247 7,5 C 7,7 C
09.11.2012 10:06 9,9 C 85 % 1017,7 hPa 0,0 l/m 13,7 km/h (3 Bft) W-SW 247 7,5 C 8,0 C
09.11.2012 10:11 9,8 C 85 % 1017,8 hPa 0,0 l/m 22,7 km/h (4 Bft) W 270 7,4 C 6,9 C
09.11.2012 10:16 9,8 C 85 % 1017,8 hPa 0,0 l/m 16,6 km/h (3 Bft) W 270 7,4 C 7,5 C
09.11.2012 10:21 9,6 C 84 % 1017,9 hPa 0,0 l/m 6,8 km/h (2 Bft) W 270 7,0 C 8,8 C
09.11.2012 10:26 9,6 C 84 % 1018,0 hPa 0,0 l/m 7,9 km/h (2 Bft) W-NW 292 7,0 C 8,6 C
09.11.2012 10:31 9,5 C 84 % 1018,0 hPa 0,0 l/m 18,7 km/h (3 Bft) W-SW 247 6,9 C 6,9 C
09.11.2012 10:36 9,6 C 85 % 1018,0 hPa 0,0 l/m 20,9 km/h (4 Bft) W-SW 247 7,2 C 6,8 C
09.11.2012 10:41 9,6 C 85 % 1018,0 hPa 0,0 l/m 9,0 km/h (2 Bft) W-SW 247 7,2 C 8,3 C
09.11.2012 10:46 9,8 C 85 % 1018,0 hPa 0,0 l/m 18,4 km/h (3 Bft) W-SW 247 7,4 C 7,3 C
09.11.2012 10:51 9,8 C 85 % 1018,0 hPa 0,0 l/m 10,1 km/h (2 Bft) W-SW 247 7,4 C 8,4 C
09.11.2012 10:56 9,9 C 85 % 1018,1 hPa 0,0 l/m 7,6 km/h (2 Bft) W-SW 247 7,5 C 9,0 C
09.11.2012 11:01 9,9 C 84 % 1018,2 hPa 0,0 l/m 6,1 km/h (2 Bft) SW 225 7,3 C 9,3 C
09.11.2012 11:06 9,9 C 84 % 1018,0 hPa 0,0 l/m 13,7 km/h (3 Bft) W 270 7,3 C 8,0 C
09.11.2012 11:11 10,1 C 84 % 1017,8 hPa 0,0 l/m 18,0 km/h (3 Bft) W-NW 292 7,5 C 10,1 C
09.11.2012 11:16 10,1 C 84 % 1017,9 hPa 0,0 l/m 15,5 km/h (3 Bft) SW 225 7,5 C 10,1 C
09.11.2012 11:21 10,2 C 84 % 1017,9 hPa 0,0 l/m 15,8 km/h (3 Bft) W 270 7,6 C 10,2 C
09.11.2012 11:26 10,3 C 84 % 1017,9 hPa 0,0 l/m 14,4 km/h (3 Bft) W-SW 247 7,7 C 10,3 C
09.11.2012 11:31 10,3 C 84 % 1017,9 hPa 0,0 l/m 11,9 km/h (2 Bft) W-SW 247 7,7 C 10,3 C
09.11.2012 11:36 10,4 C 83 % 1017,9 hPa 0,0 l/m 14,8 km/h (3 Bft) W-SW 247 7,6 C 10,4 C
09.11.2012 11:41 10,5 C 83 % 1017,9 hPa 0,0 l/m 5,0 km/h (1 Bft) W-SW 247 7,7 C 10,5 C
09.11.2012 11:46 10,6 C 82 % 1017,8 hPa 0,0 l/m 24,1 km/h (4 Bft) W 270 7,7 C 10,6 C
09.11.2012 11:51 10,8 C 82 % 1017,8 hPa 0,0 l/m 5,4 km/h (1 Bft) S-SW 202 7,9 C 10,8 C
09.11.2012 11:56 10,9 C 82 % 1017,8 hPa 0,0 l/m 20,2 km/h (4 Bft) W-SW 247 7,9 C 10,9 C
09.11.2012 12:01 10,9 C 81 % 1017,6 hPa 0,0 l/m 11,9 km/h (2 Bft) W 270 7,8 C 10,9 C
09.11.2012 12:06 10,9 C 81 % 1017,7 hPa 0,0 l/m 12,2 km/h (2 Bft) SW 225 7,8 C 10,9 C
09.11.2012 12:11 11,1 C 81 % 1017,8 hPa 0,0 l/m 6,1 km/h (2 Bft) W-SW 247 8,0 C 11,1 C
09.11.2012 12:16 11,1 C 80 % 1017,7 hPa 0,0 l/m 8,3 km/h (2 Bft) W 270 7,8 C 11,1 C
09.11.2012 12:21 11,1 C 80 % 1017,5 hPa 0,0 l/m 16,6 km/h (3 Bft) W-SW 247 7,8 C 11,1 C
09.11.2012 12:26 11,1 C 80 % 1017,5 hPa 0,0 l/m 7,9 km/h (2 Bft) W 270 7,8 C 11,1 C
09.11.2012 12:31 11,1 C 80 % 1017,5 hPa 0,0 l/m 11,2 km/h (2 Bft) W-SW 247 7,8 C 11,1 C
09.11.2012 12:36 10,9 C 80 % 1017,6 hPa 0,0 l/m 12,2 km/h (2 Bft) W-SW 247 7,6 C 10,9 C
09.11.2012 12:41 10,9 C 80 % 1017,5 hPa 0,0 l/m 10,1 km/h (2 Bft) SW 225 7,6 C 10,9 C
09.11.2012 12:46 10,8 C 80 % 1017,5 hPa 0,0 l/m 19,4 km/h (3 Bft) W 270 7,5 C 10,8 C
09.11.2012 12:51 10,6 C 81 % 1017,5 hPa 0,0 l/m 6,8 km/h (2 Bft) W-SW 247 7,5 C 10,6 C
09.11.2012 12:56 10,6 C 81 % 1017,5 hPa 0,0 l/m 9,7 km/h (2 Bft) W-SW 247 7,5 C 10,6 C
09.11.2012 13:01 10,6 C 81 % 1017,2 hPa 0,0 l/m 13,7 km/h (3 Bft) W-SW 247 7,5 C 10,6 C
09.11.2012 13:06 10,6 C 81 % 1017,2 hPa 0,0 l/m 11,2 km/h (2 Bft) S-SW 202 7,5 C 10,6 C
09.11.2012 13:11 10,6 C 81 % 1017,3 hPa 0,0 l/m 9,7 km/h (2 Bft) W-SW 247 7,5 C 10,6 C
09.11.2012 13:16 10,6 C 81 % 1017,2 hPa 0,0 l/m 7,9 km/h (2 Bft) S-SW 202 7,5 C 10,6 C
09.11.2012 13:21 10,6 C 81 % 1017,2 hPa 0,0 l/m 9,0 km/h (2 Bft) S-SW 202 7,5 C 10,6 C
09.11.2012 13:26 10,8 C 81 % 1017,1 hPa 0,0 l/m 5,8 km/h (2 Bft) SW 225 7,7 C 10,8 C
09.11.2012 13:31 10,8 C 81 % 1017,1 hPa 0,0 l/m 9,7 km/h (2 Bft) W 270 7,7 C 10,8 C
09.11.2012 13:36 10,8 C 81 % 1017,2 hPa 0,0 l/m 4,3 km/h (1 Bft) W-SW 247 7,7 C 10,8 C
09.11.2012 13:41 10,8 C 81 % 1017,1 hPa 0,0 l/m 11,5 km/h (2 Bft) W-SW 247 7,7 C 10,8 C
09.11.2012 13:46 10,8 C 81 % 1017,0 hPa 0,0 l/m 2,9 km/h (1 Bft) S-SW 202 7,7 C 10,8 C
09.11.2012 13:51 10,8 C 81 % 1017,0 hPa 0,0 l/m 15,8 km/h (3 Bft) W-SW 247 7,7 C 10,8 C
09.11.2012 13:56 10,8 C 81 % 1017,0 hPa 0,0 l/m 7,2 km/h (2 Bft) W-SW 247 7,7 C 10,8 C
09.11.2012 14:01 10,8 C 80 % 1017,0 hPa 0,0 l/m 7,2 km/h (2 Bft) SW 225 7,5 C 10,8 C
09.11.2012 14:06 10,7 C 80 % 1016,9 hPa 0,0 l/m 6,1 km/h (2 Bft) S-SW 202 7,4 C 10,7 C
09.11.2012 14:11 10,6 C 80 % 1017,0 hPa 0,0 l/m 6,5 km/h (2 Bft) W 270 7,3 C 10,6 C
09.11.2012 14:16 10,6 C 80 % 1016,9 hPa 0,0 l/m 6,1 km/h (2 Bft) W-SW 247 7,3 C 10,6 C
09.11.2012 14:21 10,6 C 81 % 1016,8 hPa 0,0 l/m 6,1 km/h (2 Bft) SW 225 7,5 C 10,6 C
09.11.2012 14:26 10,6 C 81 % 1016,8 hPa 0,0 l/m 6,5 km/h (2 Bft) W-SW 247 7,5 C 10,6 C
09.11.2012 14:31 10,6 C 80 % 1016,8 hPa 0,0 l/m 7,6 km/h (2 Bft) SW 225 7,3 C 10,6 C
09.11.2012 14:36 10,5 C 80 % 1016,8 hPa 0,0 l/m 6,1 km/h (2 Bft) W-SW 247 7,2 C 10,5 C
09.11.2012 14:41 10,6 C 80 % 1016,7 hPa 0,0 l/m 9,0 km/h (2 Bft) SW 225 7,3 C 10,6 C
09.11.2012 14:46 10,5 C 81 % 1016,8 hPa 0,0 l/m 7,6 km/h (2 Bft) W-SW 247 7,4 C 10,5 C
09.11.2012 14:51 10,4 C 81 % 1016,8 hPa 0,0 l/m 8,3 km/h (2 Bft) W-SW 247 7,3 C 10,4 C
09.11.2012 14:56 10,4 C 81 % 1016,7 hPa 0,0 l/m 4,7 km/h (1 Bft) SW 225 7,3 C 10,4 C
09.11.2012 15:01 10,4 C 81 % 1016,7 hPa 0,0 l/m 4,7 km/h (1 Bft) SW 225 7,3 C 10,4 C
09.11.2012 15:06 10,4 C 81 % 1016,7 hPa 0,0 l/m 3,2 km/h (1 Bft) SW 225 7,3 C 10,4 C
09.11.2012 15:11 10,4 C 81 % 1016,8 hPa 0,0 l/m 4,3 km/h (1 Bft) S-SW 202 7,3 C 10,4 C
09.11.2012 15:16 10,3 C 81 % 1016,7 hPa 0,0 l/m 5,8 km/h (2 Bft) W-SW 247 7,2 C 10,3 C
09.11.2012 15:21 10,3 C 81 % 1016,7 hPa 0,0 l/m 2,9 km/h (1 Bft) W-SW 247 7,2 C 10,3 C
09.11.2012 15:26 10,3 C 81 % 1016,7 hPa 0,0 l/m 2,9 km/h (1 Bft) SW 225 7,2 C 10,3 C
09.11.2012 15:31 10,2 C 81 % 1016,6 hPa 0,0 l/m 3,6 km/h (1 Bft) SW 225 7,1 C 10,2 C
09.11.2012 15:36 10,2 C 82 % 1016,4 hPa 0,0 l/m 2,2 km/h (1 Bft) SW 225 7,3 C 10,2 C
09.11.2012 15:41 10,1 C 82 % 1016,5 hPa 0,0 l/m 1,8 km/h (1 Bft) SW 225 7,2 C 10,1 C
09.11.2012 15:46 10,1 C 82 % 1016,7 hPa 0,0 l/m 2,5 km/h (1 Bft) SW 225 7,2 C 10,1 C
09.11.2012 15:51 10,1 C 82 % 1016,7 hPa 0,0 l/m 0,0 km/h (0 Bft) SW 225 7,2 C 10,1 C
09.11.2012 15:56 10,1 C 82 % 1016,7 hPa 0,0 l/m 2,5 km/h (1 Bft) S-SW 202 7,2 C 10,1 C
09.11.2012 16:01 9,9 C 82 % 1016,5 hPa 0,0 l/m 0,0 km/h (0 Bft) S-SW 202 7,0 C 9,9 C
09.11.2012 16:06 9,9 C 82 % 1016,5 hPa 0,0 l/m 0,0 km/h (0 Bft) S-SW 202 7,0 C 9,9 C
09.11.2012 16:11 9,9 C 82 % 1016,6 hPa 0,0 l/m 1,8 km/h (1 Bft) S 180 7,0 C 9,9 C
09.11.2012 16:16 9,9 C 82 % 1016,6 hPa 0,0 l/m 1,4 km/h (1 Bft) S 180 7,0 C 9,9 C
09.11.2012 16:21 9,8 C 82 % 1016,4 hPa 0,0 l/m 4,7 km/h (1 Bft) S-SO 157 6,9 C 9,6 C
09.11.2012 16:26 9,8 C 83 % 1016,5 hPa 0,0 l/m 2,9 km/h (1 Bft) S-SO 157 7,1 C 9,8 C
09.11.2012 16:31 9,6 C 83 % 1016,5 hPa 0,0 l/m 4,3 km/h (1 Bft) S-SO 157 6,9 C 9,6 C
09.11.2012 16:36 9,6 C 83 % 1016,4 hPa 0,0 l/m 0,0 km/h (0 Bft) S-SO 157 6,9 C 9,6 C
09.11.2012 16:41 9,6 C 83 % 1016,3 hPa 0,0 l/m 2,9 km/h (1 Bft) S 180 6,9 C 9,6 C
09.11.2012 16:46 9,5 C 84 % 1016,4 hPa 0,0 l/m 4,0 km/h (1 Bft) S-SO 157 6,9 C 9,5 C
09.11.2012 16:51 9,5 C 84 % 1016,3 hPa 0,0 l/m 0,0 km/h (0 Bft) S-SW 202 6,9 C 9,5 C
09.11.2012 16:56 9,5 C 84 % 1016,2 hPa 0,0 l/m 4,7 km/h (1 Bft) S-SO 157 6,9 C 9,3 C
09.11.2012 17:01 9,4 C 84 % 1016,1 hPa 0,0 l/m 2,5 km/h (1 Bft) S 180 6,8 C 9,4 C
09.11.2012 17:06 9,4 C 84 % 1016,2 hPa 0,0 l/m 3,2 km/h (1 Bft) S 180 6,8 C 9,4 C
09.11.2012 17:11 9,3 C 84 % 1016,2 hPa 0,0 l/m 1,4 km/h (1 Bft) S-SO 157 6,7 C 9,3 C
09.11.2012 17:16 9,3 C 84 % 1016,0 hPa 0,0 l/m 5,0 km/h (1 Bft) SO 135 6,7 C 9,0 C
09.11.2012 17:21 9,3 C 84 % 1015,8 hPa 0,0 l/m 5,0 km/h (1 Bft) S 180 6,7 C 9,0 C
09.11.2012 17:26 9,3 C 84 % 1015,9 hPa 0,0 l/m 5,8 km/h (2 Bft) S-SW 202 6,7 C 8,7 C
09.11.2012 17:31 9,2 C 84 % 1016,0 hPa 0,0 l/m 4,7 km/h (1 Bft) SW 225 6,6 C 8,9 C
09.11.2012 17:36 9,2 C 84 % 1016,1 hPa 0,0 l/m 4,7 km/h (1 Bft) S 180 6,6 C 8,9 C
09.11.2012 17:41 9,2 C 84 % 1016,0 hPa 0,0 l/m 0,0 km/h (0 Bft) S-SO 157 6,6 C 9,2 C
09.11.2012 17:46 9,1 C 84 % 1016,1 hPa 0,0 l/m 2,5 km/h (1 Bft) S-SW 202 6,5 C 9,1 C
09.11.2012 17:51 9,1 C 84 % 1016,0 hPa 0,0 l/m 2,9 km/h (1 Bft) S-SW 202 6,5 C 9,1 C
09.11.2012 17:56 9,1 C 84 % 1016,3 hPa 0,0 l/m 4,0 km/h (1 Bft) S-SO 157 6,5 C 9,1 C
09.11.2012 18:01 9,0 C 84 % 1016,2 hPa 0,0 l/m 4,0 km/h (1 Bft) S-SW 202 6,4 C 9,0 C
09.11.2012 18:06 9,0 C 84 % 1016,3 hPa 0,0 l/m 2,5 km/h (1 Bft) S 180 6,4 C 9,0 C
09.11.2012 18:11 9,0 C 84 % 1016,3 hPa 0,0 l/m 2,2 km/h (1 Bft) SO 135 6,4 C 9,0 C
09.11.2012 18:16 9,0 C 84 % 1016,2 hPa 0,0 l/m 2,2 km/h (1 Bft) S 180 6,4 C 9,0 C
09.11.2012 18:21 9,0 C 84 % 1016,1 hPa 0,0 l/m 5,4 km/h (1 Bft) S-SO 157 6,4 C 8,5 C
09.11.2012 18:26 8,9 C 84 % 1016,0 hPa 0,0 l/m 4,0 km/h (1 Bft) S-SO 157 6,3 C 8,9 C
09.11.2012 18:31 8,9 C 84 % 1015,9 hPa 0,0 l/m 5,0 km/h (1 Bft) S-SO 157 6,3 C 8,5 C
09.11.2012 18:36 8,9 C 84 % 1015,8 hPa 0,0 l/m 5,0 km/h (1 Bft) S-SO 157 6,3 C 8,5 C
09.11.2012 18:41 8,9 C 84 % 1015,9 hPa 0,0 l/m 1,1 km/h (1 Bft) S-SO 157 6,3 C 8,9 C
09.11.2012 18:46 8,9 C 85 % 1015,8 hPa 0,0 l/m 1,4 km/h (1 Bft) S-SW 202 6,5 C 8,9 C
09.11.2012 18:51 8,9 C 85 % 1015,8 hPa 0,0 l/m 2,5 km/h (1 Bft) S 180 6,5 C 8,9 C
09.11.2012 18:56 8,9 C 85 % 1015,7 hPa 0,0 l/m 5,0 km/h (1 Bft) SO 135 6,5 C 8,5 C
09.11.2012 19:01 8,9 C 85 % 1015,7 hPa 0,0 l/m 4,7 km/h (1 Bft) S-SW 202 6,5 C 8,6 C
09.11.2012 19:06 8,9 C 85 % 1015,6 hPa 0,0 l/m 2,5 km/h (1 Bft) SO 135 6,5 C 8,9 C
09.11.2012 19:11 8,9 C 84 % 1015,6 hPa 0,0 l/m 5,0 km/h (1 Bft) S-SO 157 6,3 C 8,5 C
09.11.2012 19:16 8,9 C 84 % 1015,5 hPa 0,0 l/m 3,6 km/h (1 Bft) S-SO 157 6,3 C 8,9 C
09.11.2012 19:21 8,8 C 84 % 1015,5 hPa 0,0 l/m 2,9 km/h (1 Bft) SO 135 6,2 C 8,8 C
09.11.2012 19:26 8,8 C 84 % 1015,4 hPa 0,0 l/m 3,6 km/h (1 Bft) S-SO 157 6,2 C 8,8 C
09.11.2012 19:31 8,8 C 84 % 1015,5 hPa 0,0 l/m 3,6 km/h (1 Bft) S-SW 202 6,2 C 8,8 C
09.11.2012 19:36 8,7 C 84 % 1015,6 hPa 0,0 l/m 1,8 km/h (1 Bft) S-SW 202 6,2 C 8,7 C
09.11.2012 19:41 8,6 C 84 % 1015,6 hPa 0,0 l/m 3,2 km/h (1 Bft) S-SO 157 6,1 C 8,6 C
09.11.2012 19:46 8,6 C 84 % 1015,8 hPa 0,0 l/m 2,9 km/h (1 Bft) S-SW 202 6,1 C 8,6 C
09.11.2012 19:51 8,6 C 84 % 1015,5 hPa 0,0 l/m 2,2 km/h (1 Bft) S-SO 157 6,1 C 8,6 C
09.11.2012 19:56 8,6 C 84 % 1015,7 hPa 0,0 l/m 2,5 km/h (1 Bft) S-SO 157 6,1 C 8,6 C
09.11.2012 20:01 8,5 C 84 % 1015,7 hPa 0,0 l/m 2,5 km/h (1 Bft) SO 135 6,0 C 8,5 C
09.11.2012 20:06 8,5 C 84 % 1015,6 hPa 0,0 l/m 0,0 km/h (0 Bft) S 180 6,0 C 8,5 C
09.11.2012 20:11 8,5 C 84 % 1015,6 hPa 0,0 l/m 5,0 km/h (1 Bft) S 180 6,0 C 8,1 C
09.11.2012 20:16 8,4 C 84 % 1015,5 hPa 0,0 l/m 2,5 km/h (1 Bft) S 180 5,9 C 8,4 C
09.11.2012 20:21 8,4 C 84 % 1015,3 hPa 0,0 l/m 4,7 km/h (1 Bft) S 180 5,9 C 8,0 C
09.11.2012 20:26 8,4 C 85 % 1015,1 hPa 0,0 l/m 1,1 km/h (1 Bft) S-SO 157 6,0 C 8,4 C
09.11.2012 20:31 8,4 C 85 % 1015,0 hPa 0,0 l/m 2,2 km/h (1 Bft) SO 135 6,0 C 8,4 C
09.11.2012 20:36 8,4 C 85 % 1014,9 hPa 0,0 l/m 10,8 km/h (2 Bft) SO 135 6,0 C 6,6 C
09.11.2012 20:41 8,4 C 84 % 1014,9 hPa 0,0 l/m 6,5 km/h (2 Bft) SO 135 5,9 C 7,5 C
09.11.2012 20:46 8,3 C 84 % 1015,0 hPa 0,0 l/m 1,8 km/h (1 Bft) S-SO 157 5,8 C 8,3 C
09.11.2012 20:51 8,3 C 84 % 1014,9 hPa 0,0 l/m 0,0 km/h (0 Bft) S-SW 202 5,8 C 8,3 C
09.11.2012 20:56 8,2 C 84 % 1014,8 hPa 0,0 l/m 2,9 km/h (1 Bft) S-SO 157 5,7 C 8,2 C
09.11.2012 21:01 8,2 C 84 % 1014,7 hPa 0,0 l/m 0,0 km/h (0 Bft) S-SO 157 5,7 C 8,2 C
09.11.2012 21:06 8,1 C 84 % 1014,9 hPa 0,0 l/m 0,0 km/h (0 Bft) S-SO 157 5,6 C 8,1 C
09.11.2012 21:11 8,1 C 84 % 1014,9 hPa 0,0 l/m 6,5 km/h (2 Bft) S-SO 157 5,6 C 7,1 C
09.11.2012 21:16 8,1 C 84 % 1014,9 hPa 0,0 l/m 0,0 km/h (0 Bft) S 180 5,6 C 8,1 C
09.11.2012 21:21 7,9 C 84 % 1015,0 hPa 0,0 l/m 0,0 km/h (0 Bft) S-SO 157 5,4 C 7,9 C
09.11.2012 21:26 7,9 C 84 % 1014,9 hPa 0,0 l/m 0,0 km/h (0 Bft) SO 135 5,4 C 7,9 C
09.11.2012 21:31 7,9 C 84 % 1014,9 hPa 0,0 l/m 6,5 km/h (2 Bft) S-SO 157 5,4 C 6,9 C
09.11.2012 21:36 7,8 C 84 % 1014,9 hPa 0,0 l/m 4,7 km/h (1 Bft) S-SO 157 5,3 C 7,4 C
09.11.2012 21:41 7,8 C 84 % 1014,7 hPa 0,0 l/m 5,4 km/h (1 Bft) S 180 5,3 C 7,1 C
09.11.2012 21:46 7,8 C 84 % 1014,6 hPa 0,0 l/m 5,0 km/h (1 Bft) SO 135 5,3 C 7,3 C
09.11.2012 21:51 7,8 C 84 % 1014,5 hPa 0,0 l/m 7,9 km/h (2 Bft) S-SO 157 5,3 C 6,4 C
09.11.2012 21:56 7,8 C 84 % 1014,5 hPa 0,0 l/m 3,6 km/h (1 Bft) S-SO 157 5,3 C 7,8 C
09.11.2012 22:01 7,8 C 84 % 1014,3 hPa 0,0 l/m 7,6 km/h (2 Bft) SO 135 5,3 C 6,5 C
09.11.2012 22:06 7,7 C 84 % 1014,3 hPa 0,0 l/m 9,7 km/h (2 Bft) SO 135 5,2 C 5,9 C
09.11.2012 22:11 7,6 C 84 % 1014,1 hPa 0,0 l/m 4,7 km/h (1 Bft) SO 135 5,1 C 7,1 C
09.11.2012 22:16 7,6 C 84 % 1014,2 hPa 0,0 l/m 2,5 km/h (1 Bft) S-SO 157 5,1 C 7,6 C
09.11.2012 22:21 7,6 C 84 % 1014,2 hPa 0,0 l/m 4,7 km/h (1 Bft) S-SO 157 5,1 C 7,1 C
09.11.2012 22:26 7,6 C 84 % 1014,2 hPa 0,0 l/m 6,5 km/h (2 Bft) SO 135 5,1 C 6,6 C
09.11.2012 22:31 7,6 C 84 % 1014,1 hPa 0,0 l/m 3,6 km/h (1 Bft) SO 135 5,1 C 7,6 C
09.11.2012 22:36 7,6 C 84 % 1013,9 hPa 0,0 l/m 5,8 km/h (2 Bft) SW 225 5,1 C 6,8 C
09.11.2012 22:41 7,6 C 84 % 1013,9 hPa 0,0 l/m 5,0 km/h (1 Bft) SO 135 5,1 C 7,0 C
09.11.2012 22:46 7,6 C 84 % 1014,0 hPa 0,0 l/m 6,1 km/h (2 Bft) S-SW 202 5,1 C 6,7 C
09.11.2012 22:51 7,6 C 84 % 1013,9 hPa 0,0 l/m 7,6 km/h (2 Bft) SO 135 5,1 C 6,3 C
09.11.2012 22:56 7,6 C 84 % 1013,7 hPa 0,0 l/m 13,0 km/h (3 Bft) S-SO 157 5,1 C 5,2 C
09.11.2012 23:01 7,6 C 84 % 1013,7 hPa 0,0 l/m 7,2 km/h (2 Bft) SO 135 5,1 C 6,4 C
09.11.2012 23:06 7,6 C 84 % 1013,5 hPa 0,0 l/m 11,2 km/h (2 Bft) SO 135 5,1 C 5,5 C
09.11.2012 23:11 7,6 C 84 % 1013,2 hPa 0,0 l/m 8,3 km/h (2 Bft) SO 135 5,1 C 6,1 C
09.11.2012 23:16 7,6 C 84 % 1013,1 hPa 0,0 l/m 5,0 km/h (1 Bft) S 180 5,1 C 7,0 C
09.11.2012 23:21 7,6 C 84 % 1013,2 hPa 0,0 l/m 2,5 km/h (1 Bft) S-SO 157 5,1 C 7,6 C
09.11.2012 23:26 7,6 C 84 % 1012,9 hPa 0,0 l/m 2,5 km/h (1 Bft) SO 135 5,1 C 7,6 C
09.11.2012 23:31 7,6 C 84 % 1012,8 hPa 0,0 l/m 4,0 km/h (1 Bft) S-SO 157 5,1 C 7,6 C
09.11.2012 23:36 7,6 C 84 % 1012,8 hPa 0,0 l/m 5,0 km/h (1 Bft) S-SO 157 5,1 C 7,0 C
09.11.2012 23:41 7,6 C 83 % 1012,4 hPa 0,0 l/m 10,8 km/h (2 Bft) SO 135 4,9 C 5,6 C
09.11.2012 23:46 7,6 C 83 % 1012,4 hPa 0,0 l/m 7,6 km/h (2 Bft) SO 135 4,9 C 6,3 C
09.11.2012 23:51 7,6 C 83 % 1012,2 hPa 0,0 l/m 9,7 km/h (2 Bft) S 180 4,9 C 5,8 C
09.11.2012 23:56 7,6 C 83 % 1012,6 hPa 0,0 l/m 7,9 km/h (2 Bft) S 180 4,9 C 6,2 C
_ Min-Zeit 22:11 12:16 23:51 - 06:26 - - 23:41 02:41
Minimum _ 7,6 C 80 % 1012,2 hPa - 0,0 km/h (0 Bft) - - 4,9 C 5,0 C
_ Max-Zeit 12:11 02:46 11:01 00:01 11:46 - - 12:11 12:11
Maximum _ 11,1 C 89 % 1018,2 hPa 0,0 l/m 24,1 km/h
W (4 Bft)
- - 8,0 C 11,1 C
Durchschnitt _ 9,0 C 85 % 1015,9 hPa #0,0 l/m 8,3 km/h (2 Bft) W-SW - 6,6 C 8,1 C
(c) by David Heller